ホワイトホース の空港の天気 - METARとTAF

ホワイトホース国際空港 ( CYXY / YXY ) - カナダ ユーコン準州ホワイトホース
飛行場実況気象(Metar)
観測時間04/21 09:00 PDT (04/21 16:00 UTC)
風向・風速南南東 7m/s 瞬間風速10m/s
視程10km以上
天気現象
全天の4割程度の雲 雲底高度 2440m
全天の8割程度の雲 雲底高度 6100m
気温1℃
湿度60%
気圧1008.6hPa
METARCYXY 211600Z 16014G20KT 40SM SCT080 BKN200 01/M06 A2968 RMK AC4CI3 SLP086
過去の天気等 Google飛行場航空写真 Wunderground天気予報

過去48時間のMETAR

飛行場予報(TAF)
発表時間: 4/21 04:38 PDT (4/21 11:38 UTC)
予報対象時間: 21日5時 PDT ~ 21日17時 PDT
風向・風速南南東 5m/s
視程10km以上
全天の4割程度の雲 雲底高度 1830m
全天の8割程度の雲 雲底高度 3050m
全天を覆う雲 雲底高度 6100m
21日7時 PDT ~ 21日9時 PDT に徐々に
風向・風速南南東 8m/s 瞬間風速 13m/s
21日14時 PDT から
風向・風速南南東 8m/s 瞬間風速 13m/s
視程10km以上
全天の8割程度の雲 雲底高度 1520m
TAF CYXY 211138Z 2112/2124 16010KT P6SM SCT060 BKN100 OVC200
BECMG 2114/2116 16015G25KT
FM212100 16015G25KT P6SM BKN050 RMK NXT FCST BY 211800Z